Map

Track Data

SID SEASON NUMBER BASIN SUBBASIN NAME ISO_TIME NATURE LAT LON WMO_WIND WMO_PRES WMO_AGENCY TRACK_TYPE DIST2LAND LANDFALL IFLAG USA_AGENCY USA_ATCF_ID USA_LAT USA_LON USA_RECORD USA_STATUS USA_WIND USA_PRES USA_SSHS USA_R34_NE USA_R34_SE USA_R34_SW USA_R34_NW USA_R50_NE USA_R50_SE USA_R50_SW USA_R50_NW USA_R64_NE USA_R64_SE USA_R64_SW USA_R64_NW USA_POCI USA_ROCI USA_RMW USA_EYE TOKYO_LAT TOKYO_LON TOKYO_GRADE TOKYO_WIND TOKYO_PRES TOKYO_R50_DIR TOKYO_R50_LONG TOKYO_R50_SHORT TOKYO_R30_DIR TOKYO_R30_LONG TOKYO_R30_SHORT TOKYO_LAND CMA_LAT CMA_LON CMA_CAT CMA_WIND CMA_PRES HKO_LAT HKO_LON HKO_CAT HKO_WIND HKO_PRES NEWDELHI_LAT NEWDELHI_LON NEWDELHI_GRADE NEWDELHI_WIND NEWDELHI_PRES NEWDELHI_CI NEWDELHI_DP NEWDELHI_POCI REUNION_LAT REUNION_LON REUNION_TYPE REUNION_WIND REUNION_PRES REUNION_TNUM REUNION_CI REUNION_RMW REUNION_R34_NE REUNION_R34_SE REUNION_R34_SW REUNION_R34_NW REUNION_R50_NE REUNION_R50_SE REUNION_R50_SW REUNION_R50_NW REUNION_R64_NE REUNION_R64_SE REUNION_R64_SW REUNION_R64_NW BOM_LAT BOM_LON BOM_TYPE BOM_WIND BOM_PRES BOM_TNUM BOM_CI BOM_RMW BOM_R34_NE BOM_R34_SE BOM_R34_SW BOM_R34_NW BOM_R50_NE BOM_R50_SE BOM_R50_SW BOM_R50_NW BOM_R64_NE BOM_R64_SE BOM_R64_SW BOM_R64_NW BOM_ROCI BOM_POCI BOM_EYE BOM_POS_METHOD BOM_PRES_METHOD NADI_LAT NADI_LON NADI_CAT NADI_WIND NADI_PRES WELLINGTON_LAT WELLINGTON_LON WELLINGTON_WIND WELLINGTON_PRES DS824_LAT DS824_LON DS824_STAGE DS824_WIND DS824_PRES TD9636_LAT TD9636_LON TD9636_STAGE TD9636_WIND TD9636_PRES TD9635_LAT TD9635_LON TD9635_WIND TD9635_PRES TD9635_ROCI NEUMANN_LAT NEUMANN_LON NEUMANN_CLASS NEUMANN_WIND NEUMANN_PRES MLC_LAT MLC_LON MLC_CLASS MLC_WIND MLC_PRES USA_GUST BOM_GUST BOM_GUST_PER REUNION_GUST REUNION_GUST_PER USA_SEAHGT USA_SEARAD_NE USA_SEARAD_SE USA_SEARAD_SW USA_SEARAD_NW STORM_SPEED STORM_DIR
1940317N11079 1940 79 NI BB NOT_NAMED 1940-11-12 00:00:00 TS 10.7000 79.0000 main 0 0 _________O____ -1 10.7000 79.0000 TC 30 9 270
1940317N11079 1940 79 NI BB NOT_NAMED 1940-11-12 03:00:00 TS 10.6985 78.5633 main 0 0 _________PO___ -1 10.6978 78.3450 TC 30 10.7000 79.0000 1 10 270
1940317N11079 1940 79 NI AS NOT_NAMED 1940-11-12 06:00:00 TS 10.7033 77.9700 main 0 0 _________OP___ -1 10.7000 77.7000 TC 30 10.7083 78.3749 1 12 271
1940317N11079 1940 79 NI AS NOT_NAMED 1940-11-12 09:00:00 TS 10.7096 77.3542 main 0 0 _________PP___ -1 10.7073 77.0650 TC 30 10.7128 77.7399 1 12 270
1940317N11079 1940 79 NI AS NOT_NAMED 1940-11-12 12:00:00 TS 10.7055 76.7425 main 0 0 _________OP___ -1 10.7000 76.4000 TC 30 10.7109 77.0849 1 13 269
1940317N11079 1940 79 NI AS NOT_NAMED 1940-11-12 15:00:00 TS 10.6751 76.0100 main 0 0 _________PO___ -1 10.6502 75.6199 TC 30 10.7000 76.4000 1 14 267
1940317N11079 1940 79 NI AS NOT_NAMED 1940-11-12 18:00:00 TS 10.6393 75.2941 main 69 69 _________OP___ -1 10.6000 74.9000 TC 30 10.6786 75.6882 1 13 268
1940317N11079 1940 79 NI AS NOT_NAMED 1940-11-12 21:00:00 TS 10.6215 74.6713 main 133 133 _________PP___ -1 10.5924 74.3376 TC 30 10.6507 75.0050 1 11 268
1940317N11079 1940 79 NI AS NOT_NAMED 1940-11-13 00:00:00 TS 10.6112 74.2097 main 183 183 _________OP___ -1 10.6000 74.0000 TC 30 10.6224 74.4194 1 7 268
1940317N11079 1940 79 NI AS NOT_NAMED 1940-11-13 03:00:00 TS 10.5999 73.9662 main 201 201 _________PO___ -1 10.5999 73.9325 TC 30 10.6000 74.0000 1 3 267
1940317N11079 1940 79 NI AS NOT_NAMED 1940-11-13 06:00:00 TS 10.5961 73.9138 main 211 211 _________OP___ -1 10.6000 74.0000 TC 30 10.5921 73.8276 1 1 266
1940317N11079 1940 79 NI AS NOT_NAMED 1940-11-13 09:00:00 TS 10.5959 73.9101 main 211 211 _________PP___ -1 10.6000 74.0000 TC 30 10.5918 73.8201 1 0 88
1940317N11079 1940 79 NI AS NOT_NAMED 1940-11-13 12:00:00 TS 10.5978 73.9513 main 201 201 _________OP___ -1 10.6000 74.0000 TC 30 10.5956 73.9026 1 1 87
1940317N11079 1940 79 NI AS NOT_NAMED 1940-11-13 15:00:00 TS 10.6000 74.0000 main 201 201 _________PO___ -1 10.6000 74.0000 TC 30 10.6000 74.0000 1 0 87
1940317N11079 1940 79 NI AS NOT_NAMED 1940-11-13 18:00:00 TS 10.6000 74.0000 main 201 201 _________OP___ -1 10.6000 74.0000 TC 30 10.6000 74.0000 1 0 0
1940317N11079 1940 79 NI AS NOT_NAMED 1940-11-13 21:00:00 TS 10.6000 74.0000 main 201 201 _________PP___ -1 10.6000 74.0000 TC 30 10.6000 74.0000 1 0 0
1940317N11079 1940 79 NI AS NOT_NAMED 1940-11-14 00:00:00 TS 10.6000 74.0000 main 201 201 _________OP___ -1 10.6000 74.0000 TC 30 10.6000 74.0000 1 0 0
1940317N11079 1940 79 NI AS NOT_NAMED 1940-11-14 03:00:00 TS 10.6000 74.0000 main 201 201 _________PO___ -1 10.6000 74.0000 TC 30 10.6000 74.0000 1 0 0
1940317N11079 1940 79 NI AS NOT_NAMED 1940-11-14 06:00:00 TS 10.6000 74.0000 main 201 201 _________OP___ -1 10.6000 74.0000 TC 30 10.6000 74.0000 1 0 0
1940317N11079 1940 79 NI AS NOT_NAMED 1940-11-14 09:00:00 TS 10.6000 74.0000 main 201 201 _________PP___ -1 10.6000 74.0000 TC 30 10.6000 74.0000 1 0 0
1940317N11079 1940 79 NI AS NOT_NAMED 1940-11-14 12:00:00 TS 10.6000 74.0000 main 201 201 _________OP___ -1 10.6000 74.0000 TC 30 10.6000 74.0000 1 0 0
1940317N11079 1940 79 NI AS NOT_NAMED 1940-11-14 15:00:00 TS 10.6000 74.0000 main 201 201 _________PO___ -1 10.6000 74.0000 TC 30 10.6000 74.0000 1 0 0
1940317N11079 1940 79 NI AS NOT_NAMED 1940-11-14 18:00:00 TS 10.6000 74.0203 main 201 192 _________OP___ -1 10.6000 74.0000 TC 30 10.5999 74.0406 1 1 90
1940317N11079 1940 79 NI AS NOT_NAMED 1940-11-14 21:00:00 TS 10.5999 74.0562 main 192 192 _________PP___ -1 10.6000 74.0375 TC 30 10.5999 74.0750 1 0 0
1940317N11079 1940 79 NI AS NOT_NAMED 1940-11-15 00:00:00 TS 10.5999 74.0359 main 201 201 _________OP___ -1 10.6000 74.0000 TC 30 10.5999 74.0719 1 2 270
1940317N11079 1940 79 NI AS NOT_NAMED 1940-11-15 03:00:00 TS 10.6000 73.8938 main 211 211 _________PO___ -1 10.6000 73.7875 TC 30 10.6000 74.0000 1 4 270
1940317N11079 1940 79 NI AS NOT_NAMED 1940-11-15 06:00:00 TS 10.6000 73.6630 main 226 226 _________OP___ -1 10.6000 73.5000 TC 30 10.6001 73.8259 1 5 270
1940317N11079 1940 79 NI AS NOT_NAMED 1940-11-15 09:00:00 TS 10.6000 73.4200 main 251 251 _________PP___ -1 10.6000 73.2575 TC 30 10.6001 73.5825 1 5 270
1940317N11079 1940 79 NI AS NOT_NAMED 1940-11-15 12:00:00 TS 10.6000 73.1489 main 277 277 _________OP___ -1 10.6000 73.0000 TC 30 10.6001 73.2978 1 6 270
1940317N11079 1940 79 NI AS NOT_NAMED 1940-11-15 15:00:00 TS 10.6000 72.8500 main 295 305 _________PO___ -1 10.6000 72.7000 TC 30 10.6000 73.0000 1 6 270
1940317N11079 1940 79 NI AS NOT_NAMED 1940-11-15 18:00:00 TS 10.6000 72.5782 main 324 324 _________OP___ -1 10.6000 72.4000 TC 30 10.6000 72.7119 1 5 270
1940317N11079 1940 79 NI AS NOT_NAMED 1940-11-15 21:00:00 TS 10.6000 72.3160 main 353 353 _________PP___ -1 10.6000 72.1375 TC 30 10.6001 72.4350 1 5 270
1940317N11079 1940 79 NI AS NOT_NAMED 1940-11-16 00:00:00 TS 10.6001 72.0771 main 372 372 _________OP___ -1 10.6000 71.9000 TC 30 10.6001 72.1656 1 4 270
1940317N11079 1940 79 NI AS NOT_NAMED 1940-11-16 03:00:00 NR 10.6000 71.9000 main 392 __________O___ -1 TC 10.6000 71.9000 1 3 270

About IBTrACS Database

This database is a web-friendly format of International Best Track Archive for Climate Stewardship (IBTrACS), a global best track data archive curated by NOAA dating back to 1842.

Updated: 2021-10-27